createdAt,value
2023-09-17T00:00:06.783Z,15.56
2023-09-17T00:02:33.608Z,15.49
2023-09-17T00:05:00.357Z,15.44
2023-09-17T00:07:27.993Z,15.43
2023-09-17T00:09:54.561Z,15.38
2023-09-17T00:12:21.139Z,15.34
2023-09-17T00:14:49.383Z,15.29
2023-09-17T00:17:16.160Z,15.26
2023-09-17T00:19:42.967Z,15.22
2023-09-17T00:22:12.678Z,15.26
2023-09-17T00:24:39.261Z,15.25
2023-09-17T00:27:06.085Z,15.22
2023-09-17T00:29:32.571Z,15.22
2023-09-17T00:31:59.199Z,15.16
2023-09-17T00:34:25.890Z,15.13
2023-09-17T00:36:52.579Z,15.14
2023-09-17T00:39:19.271Z,15.08
2023-09-17T00:41:45.772Z,15.09
2023-09-17T00:44:12.876Z,15.05
2023-09-17T00:46:39.716Z,15.04
2023-09-17T00:49:13.641Z,15.06
2023-09-17T00:51:42.382Z,15.02
2023-09-17T00:54:10.702Z,15.09
2023-09-17T00:56:38.997Z,15.04
2023-09-17T00:59:06.780Z,15.07
2023-09-17T01:01:34.223Z,14.99
2023-09-17T01:04:01.527Z,14.95
2023-09-17T01:06:29.302Z,14.95
2023-09-17T01:08:56.765Z,14.97
2023-09-17T01:11:24.056Z,14.93
2023-09-17T01:14:11.034Z,14.86
2023-09-17T01:16:37.838Z,14.91
2023-09-17T01:19:05.177Z,14.86
2023-09-17T01:21:46.927Z,14.88
2023-09-17T01:24:28.106Z,14.89
2023-09-17T01:27:05.256Z,14.86
2023-09-17T01:29:36.034Z,14.78
2023-09-17T01:32:04.787Z,14.81
2023-09-17T01:34:38.887Z,14.79
2023-09-17T01:37:10.203Z,14.77
2023-09-17T01:39:42.204Z,14.80
2023-09-17T01:42:09.941Z,14.77
2023-09-17T01:44:38.101Z,14.73
2023-09-17T01:47:05.692Z,14.69
2023-09-17T01:49:33.563Z,14.65
2023-09-17T01:52:00.254Z,14.66
2023-09-17T01:54:27.012Z,14.63
2023-09-17T01:56:53.589Z,14.58
2023-09-17T01:59:20.241Z,14.57
2023-09-17T02:01:47.174Z,14.56
2023-09-17T02:04:14.193Z,14.56
2023-09-17T02:06:40.826Z,14.59
2023-09-17T02:09:09.500Z,14.58
2023-09-17T02:11:36.620Z,14.61
2023-09-17T02:14:03.809Z,14.51
2023-09-17T02:16:32.719Z,14.48
2023-09-17T02:19:00.540Z,14.48
2023-09-17T02:21:27.271Z,14.47
2023-09-17T02:23:56.041Z,14.47
2023-09-17T02:26:22.888Z,14.49
2023-09-17T02:28:50.543Z,14.46
2023-09-17T02:31:17.268Z,14.49
2023-09-17T02:33:44.709Z,14.45
2023-09-17T02:36:12.525Z,14.39
2023-09-17T02:38:39.351Z,14.40
2023-09-17T02:41:05.902Z,14.42
2023-09-17T02:43:32.804Z,14.38
2023-09-17T02:45:59.368Z,14.39
2023-09-17T02:48:26.385Z,14.40
2023-09-17T02:50:53.617Z,14.40
2023-09-17T02:53:21.495Z,14.41
2023-09-17T02:55:48.462Z,14.39
2023-09-17T02:58:16.235Z,14.36
2023-09-17T03:00:44.468Z,14.32
2023-09-17T03:03:12.177Z,14.29
2023-09-17T03:05:39.417Z,14.25
2023-09-17T03:08:10.516Z,14.28
2023-09-17T03:10:45.915Z,14.26
2023-09-17T03:13:15.843Z,14.24
2023-09-17T03:15:43.162Z,14.24
2023-09-17T03:18:09.769Z,14.23
2023-09-17T03:20:36.364Z,14.22
2023-09-17T03:23:05.907Z,14.21
2023-09-17T03:25:33.068Z,14.14
2023-09-17T03:28:00.727Z,14.12
2023-09-17T03:30:28.268Z,14.12
2023-09-17T03:33:04.466Z,14.16
2023-09-17T03:35:31.852Z,14.13
2023-09-17T03:37:58.315Z,14.17
2023-09-17T03:40:25.736Z,14.14
2023-09-17T03:42:52.629Z,14.08
2023-09-17T03:45:19.146Z,14.08
2023-09-17T03:47:46.865Z,14.09
2023-09-17T03:50:21.271Z,14.08
2023-09-17T03:52:51.091Z,14.09
2023-09-17T03:55:17.795Z,14.09
2023-09-17T03:57:44.390Z,14.08
2023-09-17T04:00:11.898Z,14.08
2023-09-17T04:02:39.066Z,14.09
2023-09-17T04:05:10.963Z,14.05
2023-09-17T04:07:38.531Z,14.06
2023-09-17T04:10:07.298Z,14.08
2023-09-17T04:12:38.494Z,14.05
2023-09-17T04:15:18.776Z,14.04
2023-09-17T04:17:46.442Z,14.07
2023-09-17T04:20:15.880Z,14.05
2023-09-17T04:22:44.002Z,14.06
2023-09-17T04:25:11.632Z,14.01
2023-09-17T04:27:39.766Z,13.97
2023-09-17T04:30:08.632Z,13.92
2023-09-17T04:32:38.692Z,13.89
2023-09-17T04:35:06.497Z,13.90
2023-09-17T04:37:33.782Z,13.93
2023-09-17T04:40:00.335Z,13.91
2023-09-17T04:42:26.819Z,13.88
2023-09-17T04:44:53.445Z,13.84
2023-09-17T04:47:20.156Z,13.84
2023-09-17T04:49:46.732Z,13.86
2023-09-17T04:52:13.309Z,13.91
2023-09-17T04:54:39.803Z,13.91
2023-09-17T04:57:06.700Z,13.98
2023-09-17T04:59:33.223Z,13.99
2023-09-17T05:01:59.758Z,14.00
2023-09-17T05:04:27.809Z,14.00
2023-09-17T05:06:54.502Z,14.04
2023-09-17T05:09:21.731Z,14.02
2023-09-17T05:11:48.249Z,14.06
2023-09-17T05:14:14.725Z,14.03
2023-09-17T05:16:41.521Z,14.06
2023-09-17T05:19:08.301Z,14.10
2023-09-17T05:21:34.809Z,14.10
2023-09-17T05:24:01.330Z,14.15
2023-09-17T05:26:27.846Z,14.21
2023-09-17T05:28:54.374Z,14.23
2023-09-17T05:31:20.929Z,14.26
2023-09-17T05:33:47.450Z,14.32
2023-09-17T05:36:14.002Z,14.34
2023-09-17T05:38:40.590Z,14.38
2023-09-17T05:41:07.174Z,14.51
2023-09-17T05:43:33.990Z,14.53
2023-09-17T05:46:00.606Z,14.67
2023-09-17T05:48:27.080Z,14.80
2023-09-17T05:50:59.341Z,15.04
2023-09-17T05:53:26.406Z,15.34
2023-09-17T05:55:52.896Z,15.93
2023-09-17T05:58:19.388Z,16.60
2023-09-17T06:00:45.936Z,17.21
2023-09-17T06:03:12.635Z,17.72
2023-09-17T06:05:41.356Z,18.08
2023-09-17T06:08:08.039Z,18.70
2023-09-17T06:10:34.764Z,19.28
2023-09-17T06:13:01.488Z,19.29
2023-09-17T06:15:28.197Z,19.64
2023-09-17T06:17:54.894Z,19.89
2023-09-17T06:20:21.494Z,20.17
2023-09-17T06:22:49.780Z,20.34
2023-09-17T06:25:17.130Z,20.72
2023-09-17T06:27:44.020Z,20.48
2023-09-17T06:30:10.708Z,20.47
2023-09-17T06:32:37.312Z,20.53
2023-09-17T06:35:04.150Z,20.53
2023-09-17T06:37:30.651Z,20.83
2023-09-17T06:39:57.235Z,20.74
2023-09-17T06:42:24.286Z,21.03
2023-09-17T06:44:50.727Z,20.65
2023-09-17T06:47:17.537Z,20.47
2023-09-17T06:49:44.236Z,20.53
2023-09-17T06:52:10.734Z,20.62
2023-09-17T06:54:37.285Z,20.83
2023-09-17T06:57:04.035Z,21.59
2023-09-17T06:59:30.625Z,21.95
2023-09-17T07:01:57.255Z,22.32
2023-09-17T07:04:25.298Z,22.70
2023-09-17T07:06:51.920Z,23.31
2023-09-17T07:09:19.016Z,24.02
2023-09-17T07:11:45.587Z,24.07
2023-09-17T07:14:12.261Z,23.92
2023-09-17T07:16:40.635Z,24.33
2023-09-17T07:19:07.289Z,24.92
2023-09-17T07:21:33.940Z,24.83
2023-09-17T07:24:00.594Z,25.19
2023-09-17T07:26:29.178Z,25.60
2023-09-17T07:28:55.863Z,25.43
2023-09-17T07:31:22.492Z,25.81
2023-09-17T07:33:49.951Z,25.46
2023-09-17T07:36:16.953Z,25.54
2023-09-17T07:38:43.715Z,26.03
2023-09-17T07:41:10.319Z,25.85
2023-09-17T07:43:36.884Z,25.71
2023-09-17T07:46:04.784Z,26.26
2023-09-17T07:48:31.359Z,26.52
2023-09-17T07:50:58.920Z,26.11
2023-09-17T07:53:26.181Z,26.10
2023-09-17T07:55:53.455Z,26.54
2023-09-17T07:58:20.304Z,26.89
2023-09-17T08:00:46.835Z,26.88
2023-09-17T08:03:14.969Z,26.84
2023-09-17T08:05:44.646Z,26.99
2023-09-17T08:08:11.768Z,26.63
2023-09-17T08:10:38.556Z,26.92
2023-09-17T08:13:05.439Z,26.84
2023-09-17T08:15:32.127Z,26.62
2023-09-17T08:17:58.711Z,27.53
2023-09-17T08:20:25.565Z,27.22
2023-09-17T08:22:52.787Z,27.53
2023-09-17T08:25:19.837Z,27.35
2023-09-17T08:27:48.134Z,27.78
2023-09-17T08:30:15.099Z,28.17
2023-09-17T08:32:44.759Z,28.63
2023-09-17T08:35:15.860Z,29.32
2023-09-17T08:37:43.835Z,29.98
2023-09-17T08:40:15.257Z,30.11
2023-09-17T08:42:43.166Z,30.22
2023-09-17T08:45:11.006Z,30.83
2023-09-17T08:47:38.764Z,32.19
2023-09-17T08:50:10.330Z,31.94
2023-09-17T08:52:43.026Z,33.21
2023-09-17T08:55:11.459Z,32.67
2023-09-17T08:57:39.219Z,32.43
2023-09-17T09:00:11.067Z,31.78
2023-09-17T09:02:44.731Z,32.67
2023-09-17T09:05:17.389Z,33.01
2023-09-17T09:07:47.237Z,32.82
2023-09-17T09:10:14.816Z,32.76
2023-09-17T09:12:43.298Z,33.62
2023-09-17T09:15:13.750Z,33.82
2023-09-17T09:17:40.637Z,33.66
2023-09-17T09:20:20.529Z,34.46
2023-09-17T09:22:47.152Z,34.73
2023-09-17T09:25:17.855Z,34.71
2023-09-17T09:27:44.863Z,34.97
2023-09-17T09:30:13.088Z,33.71
2023-09-17T09:32:40.140Z,34.70
2023-09-17T09:35:07.484Z,34.97
2023-09-17T09:37:35.627Z,34.59
2023-09-17T09:40:03.361Z,34.96
2023-09-17T09:42:31.540Z,35.95
2023-09-17T09:44:58.399Z,36.78
2023-09-17T09:47:24.986Z,36.58
2023-09-17T09:49:52.058Z,37.38
2023-09-17T09:52:19.258Z,37.62
2023-09-17T09:54:47.113Z,37.02
2023-09-17T09:57:17.950Z,37.18
2023-09-17T09:59:48.101Z,37.07
2023-09-17T10:02:16.670Z,37.25
2023-09-17T10:04:45.216Z,37.55
2023-09-17T10:07:12.232Z,37.53
2023-09-17T10:09:38.740Z,37.33
2023-09-17T10:12:05.828Z,36.83
2023-09-17T10:14:39.261Z,37.95
2023-09-17T10:17:08.823Z,37.96
2023-09-17T10:19:36.193Z,37.07
2023-09-17T10:22:05.031Z,38.01
2023-09-17T10:24:33.117Z,36.31
2023-09-17T10:27:00.494Z,36.88
2023-09-17T10:29:27.485Z,36.41
2023-09-17T10:31:54.428Z,35.74
2023-09-17T10:34:21.881Z,35.18
2023-09-17T10:36:50.154Z,34.22
2023-09-17T10:39:17.956Z,34.56
2023-09-17T10:41:46.107Z,34.81
2023-09-17T10:44:15.825Z,34.90
2023-09-17T10:46:44.526Z,34.64
2023-09-17T10:49:12.381Z,34.89
2023-09-17T10:51:40.857Z,34.46
2023-09-17T10:54:07.406Z,34.54
2023-09-17T10:56:34.197Z,34.18
2023-09-17T10:59:02.077Z,33.85
2023-09-17T11:01:31.762Z,34.70
2023-09-17T11:04:03.700Z,34.78
2023-09-17T11:06:32.602Z,34.86
2023-09-17T11:08:59.313Z,34.12
2023-09-17T11:11:27.138Z,32.86
2023-09-17T11:13:54.517Z,32.74
2023-09-17T11:16:22.377Z,33.88
2023-09-17T11:19:13.114Z,34.54
2023-09-17T11:21:43.501Z,34.82
2023-09-17T11:24:12.194Z,36.21
2023-09-17T11:26:40.202Z,37.26
2023-09-17T11:29:08.594Z,37.68
2023-09-17T11:31:39.649Z,37.15
2023-09-17T11:34:07.642Z,35.87
2023-09-17T11:36:36.060Z,35.46
2023-09-17T11:39:07.264Z,34.00
2023-09-17T11:41:37.725Z,33.34
2023-09-17T11:44:07.449Z,31.99
2023-09-17T11:46:35.534Z,32.26
2023-09-17T11:49:03.325Z,32.63
2023-09-17T11:51:31.440Z,32.29
2023-09-17T11:54:05.603Z,31.84
2023-09-17T11:56:34.302Z,31.60
2023-09-17T11:59:09.601Z,31.37
2023-09-17T12:01:38.304Z,31.15
2023-09-17T12:04:06.571Z,31.38
2023-09-17T12:06:35.990Z,31.74
2023-09-17T12:09:08.730Z,32.01
2023-09-17T12:11:36.229Z,32.60
2023-09-17T12:14:07.769Z,32.45
2023-09-17T12:16:34.889Z,33.29
2023-09-17T12:19:15.930Z,34.37
2023-09-17T12:21:48.179Z,35.21
2023-09-17T12:24:29.307Z,36.13
2023-09-17T12:27:07.948Z,35.71
2023-09-17T12:29:38.538Z,36.98
2023-09-17T12:32:06.252Z,37.83
2023-09-17T12:34:36.881Z,38.14
2023-09-17T12:37:06.000Z,38.37
2023-09-17T12:39:32.663Z,37.76
2023-09-17T12:41:59.155Z,38.23
2023-09-17T12:44:27.413Z,37.93
2023-09-17T12:46:54.239Z,38.66
2023-09-17T12:49:23.058Z,39.50
2023-09-17T12:51:52.408Z,39.23
2023-09-17T12:54:20.804Z,37.94
2023-09-17T12:56:47.329Z,37.46
2023-09-17T12:59:13.884Z,37.62
2023-09-17T13:01:54.320Z,36.95
2023-09-17T13:04:21.239Z,36.14
2023-09-17T13:06:48.092Z,36.51
2023-09-17T13:09:14.719Z,36.20
2023-09-17T13:11:41.305Z,35.58
2023-09-17T13:14:07.869Z,35.69
2023-09-17T13:16:34.436Z,34.26
2023-09-17T13:19:01.204Z,34.13
2023-09-17T13:21:31.258Z,34.31
2023-09-17T13:24:00.150Z,34.59
2023-09-17T13:26:27.339Z,34.43
2023-09-17T13:28:54.255Z,34.47
2023-09-17T13:31:21.174Z,34.25
2023-09-17T13:33:47.659Z,33.89
2023-09-17T13:36:15.272Z,33.81
2023-09-17T13:38:42.834Z,33.54
2023-09-17T13:41:09.498Z,33.32
2023-09-17T13:43:36.112Z,33.65
2023-09-17T13:46:03.309Z,32.89
2023-09-17T13:48:30.535Z,32.76
2023-09-17T13:50:57.398Z,33.19
2023-09-17T13:53:24.147Z,34.01
2023-09-17T13:55:50.889Z,34.12
2023-09-17T13:58:17.596Z,33.81
2023-09-17T14:00:44.406Z,34.00
2023-09-17T14:03:16.761Z,33.61
2023-09-17T14:05:44.109Z,33.96
2023-09-17T14:08:11.688Z,34.01
2023-09-17T14:10:38.619Z,33.91
2023-09-17T14:13:05.724Z,34.23
2023-09-17T14:15:33.981Z,34.54
2023-09-17T14:18:00.612Z,34.37
2023-09-17T14:20:27.204Z,34.02
2023-09-17T14:22:56.721Z,33.60
2023-09-17T14:25:24.372Z,33.71
2023-09-17T14:27:51.030Z,33.64
2023-09-17T14:30:22.909Z,32.61
2023-09-17T14:32:55.317Z,32.54
2023-09-17T14:35:22.441Z,32.94
2023-09-17T14:37:49.599Z,33.10
2023-09-17T14:40:19.182Z,32.65
2023-09-17T14:42:46.009Z,32.36
2023-09-17T14:45:12.602Z,31.91
2023-09-17T14:47:40.428Z,32.37
2023-09-17T14:50:11.979Z,32.18
2023-09-17T14:52:38.921Z,32.29
2023-09-17T14:55:06.392Z,31.92
2023-09-17T14:57:36.749Z,32.66
2023-09-17T15:00:05.010Z,32.46
2023-09-17T15:02:32.586Z,32.55
2023-09-17T15:04:59.607Z,31.56
2023-09-17T15:07:27.036Z,31.68
2023-09-17T15:09:53.687Z,31.67
2023-09-17T15:12:20.216Z,31.73
2023-09-17T15:14:46.802Z,30.92
2023-09-17T15:17:13.556Z,31.30
2023-09-17T15:19:40.157Z,31.69
2023-09-17T15:22:07.090Z,31.82
2023-09-17T15:24:33.943Z,31.57
2023-09-17T15:27:00.645Z,31.83
2023-09-17T15:29:27.259Z,31.90
2023-09-17T15:31:55.692Z,31.74
2023-09-17T15:34:22.894Z,31.71
2023-09-17T15:36:49.610Z,31.47
2023-09-17T15:39:16.141Z,31.45
2023-09-17T15:41:42.633Z,30.74
2023-09-17T15:44:09.505Z,30.68
2023-09-17T15:46:37.126Z,30.73
2023-09-17T15:49:03.978Z,30.51
2023-09-17T15:51:30.529Z,30.51
2023-09-17T15:53:57.079Z,30.31
2023-09-17T15:56:23.606Z,30.19
2023-09-17T15:58:50.814Z,29.94
2023-09-17T16:01:17.657Z,30.00
2023-09-17T16:03:44.416Z,29.89
2023-09-17T16:06:11.401Z,29.77
2023-09-17T16:08:37.931Z,29.84
2023-09-17T16:11:04.443Z,29.97
2023-09-17T16:13:31.225Z,29.71
2023-09-17T16:15:57.826Z,29.71
2023-09-17T16:18:24.479Z,29.47
2023-09-17T16:20:51.144Z,29.24
2023-09-17T16:23:18.096Z,29.00
2023-09-17T16:25:44.638Z,28.78
2023-09-17T16:28:11.180Z,28.63
2023-09-17T16:30:37.683Z,28.42
2023-09-17T16:33:04.368Z,28.21
2023-09-17T16:35:30.960Z,28.09
2023-09-17T16:37:57.499Z,27.98
2023-09-17T16:40:24.232Z,27.72
2023-09-17T16:43:01.690Z,27.68
2023-09-17T16:45:33.185Z,27.62
2023-09-17T16:47:59.852Z,27.49
2023-09-17T16:50:29.406Z,27.43
2023-09-17T16:52:56.386Z,27.18
2023-09-17T16:55:23.068Z,26.92
2023-09-17T16:57:49.582Z,26.87
2023-09-17T17:00:16.408Z,26.86
2023-09-17T17:02:43.094Z,26.75
2023-09-17T17:05:09.748Z,26.75
2023-09-17T17:07:36.579Z,26.48
2023-09-17T17:10:03.278Z,26.46
2023-09-17T17:12:29.775Z,26.30
2023-09-17T17:14:56.268Z,26.23
2023-09-17T17:17:24.113Z,26.15
2023-09-17T17:19:50.755Z,26.12
2023-09-17T17:22:17.933Z,26.01
2023-09-17T17:24:44.447Z,25.93
2023-09-17T17:27:10.908Z,25.82
2023-09-17T17:29:37.412Z,25.71
2023-09-17T17:32:04.159Z,25.57
2023-09-17T17:34:30.685Z,25.56
2023-09-17T17:37:01.058Z,25.60
2023-09-17T17:39:27.656Z,25.49
2023-09-17T17:41:54.478Z,25.44
2023-09-17T17:44:21.158Z,25.45
2023-09-17T17:46:47.787Z,25.28
2023-09-17T17:49:14.374Z,25.21
2023-09-17T17:51:40.878Z,25.19
2023-09-17T17:54:07.459Z,25.07
2023-09-17T17:56:33.997Z,25.14
2023-09-17T17:59:01.140Z,25.00
2023-09-17T18:01:28.000Z,24.95
2023-09-17T18:03:54.794Z,24.87
2023-09-17T18:06:24.041Z,24.84
2023-09-17T18:08:50.549Z,24.78
2023-09-17T18:11:17.123Z,24.69
2023-09-17T18:13:43.653Z,24.61
2023-09-17T18:16:10.331Z,24.55
2023-09-17T18:18:37.016Z,24.43
2023-09-17T18:21:03.634Z,24.40
2023-09-17T18:23:30.728Z,24.29
2023-09-17T18:25:57.357Z,24.30
2023-09-17T18:28:25.202Z,24.27
2023-09-17T18:30:55.449Z,24.28
2023-09-17T18:33:22.036Z,24.22
2023-09-17T18:35:48.521Z,24.17
2023-09-17T18:38:15.015Z,24.05
2023-09-17T18:40:41.683Z,24.09
2023-09-17T18:43:08.297Z,24.09
2023-09-17T18:45:36.639Z,24.07
2023-09-17T18:48:03.356Z,23.96
2023-09-17T18:50:30.792Z,23.78
2023-09-17T18:52:57.390Z,23.71
2023-09-17T18:55:23.886Z,23.61
2023-09-17T18:57:50.518Z,23.59
2023-09-17T19:00:17.737Z,23.41
2023-09-17T19:02:44.988Z,23.38
2023-09-17T19:05:12.110Z,23.40
2023-09-17T19:07:40.387Z,23.28
2023-09-17T19:10:11.987Z,23.21
2023-09-17T19:12:41.842Z,23.10
2023-09-17T19:15:09.008Z,22.96
2023-09-17T19:17:36.948Z,22.87
2023-09-17T19:20:04.140Z,22.89
2023-09-17T19:22:30.744Z,22.96
2023-09-17T19:24:57.349Z,22.87
2023-09-17T19:27:23.920Z,22.87
2023-09-17T19:29:50.409Z,22.81
2023-09-17T19:32:17.525Z,22.68
2023-09-17T19:34:44.043Z,22.63
2023-09-17T19:37:12.569Z,22.58
2023-09-17T19:39:39.660Z,22.51
2023-09-17T19:42:08.450Z,22.51
2023-09-17T19:44:35.008Z,22.36
2023-09-17T19:47:02.605Z,22.42
2023-09-17T19:49:29.333Z,22.32
2023-09-17T19:51:55.993Z,22.18
2023-09-17T19:54:22.654Z,22.22
2023-09-17T19:56:49.399Z,22.22
2023-09-17T19:59:16.508Z,22.16
2023-09-17T20:01:44.751Z,22.13
2023-09-17T20:04:12.645Z,21.93
2023-09-17T20:06:53.718Z,21.85
2023-09-17T20:09:22.103Z,21.86
2023-09-17T20:11:49.239Z,21.68
2023-09-17T20:14:15.917Z,21.58
2023-09-17T20:16:43.148Z,21.49
2023-09-17T20:19:09.799Z,21.42
2023-09-17T20:21:36.363Z,21.37
2023-09-17T20:24:03.846Z,21.27
2023-09-17T20:26:30.675Z,21.21
2023-09-17T20:28:57.246Z,21.25
2023-09-17T20:31:24.084Z,21.13
2023-09-17T20:33:50.704Z,21.07
2023-09-17T20:36:17.360Z,21.05
2023-09-17T20:38:47.284Z,21.03
2023-09-17T20:41:13.826Z,20.89
2023-09-17T20:43:40.535Z,20.79
2023-09-17T20:46:07.069Z,20.68
2023-09-17T20:48:34.252Z,20.61
2023-09-17T20:51:04.474Z,20.54
2023-09-17T20:53:33.080Z,20.45
2023-09-17T20:55:59.765Z,20.35
2023-09-17T20:58:26.341Z,20.30
2023-09-17T21:00:53.054Z,20.19
2023-09-17T21:03:20.252Z,20.17
2023-09-17T21:05:48.579Z,20.16
2023-09-17T21:08:15.581Z,20.08
2023-09-17T21:10:42.914Z,20.04
2023-09-17T21:13:11.960Z,19.95
2023-09-17T21:15:39.247Z,19.94
2023-09-17T21:18:06.655Z,19.84
2023-09-17T21:20:33.310Z,19.79
2023-09-17T21:23:00.051Z,19.75
2023-09-17T21:25:27.026Z,19.74
2023-09-17T21:27:54.473Z,19.71
2023-09-17T21:30:21.356Z,19.71
2023-09-17T21:32:47.910Z,19.71
2023-09-17T21:35:14.810Z,19.64
2023-09-17T21:37:41.436Z,19.59
2023-09-17T21:40:08.982Z,19.56
2023-09-17T21:42:37.169Z,19.49
2023-09-17T21:45:04.169Z,19.41
2023-09-17T21:47:30.913Z,19.41
2023-09-17T21:50:00.772Z,19.34
2023-09-17T21:52:29.701Z,19.31
2023-09-17T21:54:57.439Z,19.28
2023-09-17T21:57:24.358Z,19.20
2023-09-17T21:59:50.989Z,19.26
2023-09-17T22:02:17.919Z,19.23
2023-09-17T22:04:44.626Z,19.20
2023-09-17T22:07:11.334Z,19.19
2023-09-17T22:09:39.122Z,19.14
2023-09-17T22:12:07.914Z,19.06
2023-09-17T22:14:35.667Z,19.02
2023-09-17T22:17:03.616Z,19.02
2023-09-17T22:19:30.723Z,18.98
2023-09-17T22:21:57.239Z,18.98
2023-09-17T22:24:24.587Z,18.95
2023-09-17T22:26:51.473Z,18.85
2023-09-17T22:29:18.256Z,18.87
2023-09-17T22:31:44.837Z,18.81
2023-09-17T22:34:11.502Z,18.78
2023-09-17T22:36:38.561Z,18.74
2023-09-17T22:39:05.286Z,18.65
2023-09-17T22:41:31.820Z,18.63
2023-09-17T22:44:11.695Z,18.58
2023-09-17T22:46:44.759Z,18.52
2023-09-17T22:49:11.240Z,18.50
2023-09-17T22:51:37.743Z,18.49
2023-09-17T22:54:04.671Z,18.47
2023-09-17T22:56:31.329Z,18.43
2023-09-17T22:58:58.988Z,18.39
2023-09-17T23:01:26.255Z,18.34
2023-09-17T23:03:53.217Z,18.34
2023-09-17T23:06:19.709Z,18.36
2023-09-17T23:08:46.272Z,18.35
2023-09-17T23:11:13.322Z,18.28
2023-09-17T23:13:41.104Z,18.22
2023-09-17T23:16:07.916Z,18.22
2023-09-17T23:18:35.546Z,18.16
2023-09-17T23:21:05.498Z,18.09
2023-09-17T23:23:32.767Z,18.05
2023-09-17T23:26:02.364Z,18.03
2023-09-17T23:28:33.521Z,18.03
2023-09-17T23:31:05.100Z,18.00
2023-09-17T23:33:34.972Z,17.93
2023-09-17T23:36:03.261Z,17.91
2023-09-17T23:38:30.353Z,17.95
2023-09-17T23:40:57.105Z,17.87
2023-09-17T23:43:23.879Z,17.83
2023-09-17T23:45:50.465Z,17.77
2023-09-17T23:48:17.179Z,17.79
2023-09-17T23:50:44.106Z,17.74
2023-09-17T23:53:11.599Z,17.78
2023-09-17T23:55:38.199Z,17.74
2023-09-17T23:58:04.714Z,17.72
